Port Republic, MD (20676)

1:29 AM EDT on October 21, 2014 (GMT -0400)
St. Leonard | Change Station
CLOSE
Current Station
Personal Weather Station
Location: Saint Leonard, MD
Elevation: 154 ft
Nearby Weather Stations

Elev 154 ft 38.49 °N, 76.51 °W | Updated 1 minute ago

Mostly Cloudy
Mostly Cloudy
54.8 °F
Feels Like 54.8 °F
N
1.0
Wind Variable Wind from West
Gusts 1.0 mph

Today
High -- | Low -- °F
--% Chance of Precip.
Yesterday
High -- | Low -- °F
Precip. -- in
7:21 AM 6:19 PM
Waning Crescent, 7% visible
Pressure 29.96 in
Visibility 10.0 miles
Clouds Mostly Cloudy 9000 ft
Overcast 11000 ft
Dew Point 49 °F
Humidity 80%
Rainfall 0.00 in
Snow Depth Not available.
UV 0 out of 12
Pollen 2.00 out of 12
Air Quality Not available.
Flu Activity Sporadic
METAR K2W6 210506Z AUTO 22004KT 10SM BKN090 OVC110 13/07 A2996 RMK AO1

More Conditions Fewer Conditions

Pressure 29.96 in
Visibility 10.0 miles
Clouds Mostly Cloudy 9000 ft
Overcast 11000 ft
Dew Point 49 °F
Humidity 80%
Rainfall 0.00 in
Snow Depth Not available.
UV 0 out of 12
Pollen 2.00 out of 12
Air Quality Not available.
Flu Activity Sporadic
METAR K2W6 210506Z AUTO 22004KT 10SM BKN090 OVC110 13/07 A2996 RMK AO1

More Conditions Fewer Conditions

10-Day Weather Forecast

Almanac

Astronomy

Oct. 21, 2014 Rise Set
Actual Time 7:21 AM EDT 6:19 PM EDT
Civil Twilight 6:54 AM EDT 6:46 PM EDT
Nautical Twilight 6:23 AM EDT 7:17 PM EDT
Astronomical Twilight 5:52 AM EDT 7:48 PM EDT
Moon 5:04 AM EDT 5:11 PM EDT
Length of Visible Light 11h 52m
Length of Day
10h 58m
Tomorrow will be 2m 21s shorter.
Waning Crescent, 7% of the Moon is Illuminated
Today
Waning Crescent
Oct 23
New
Oct 30
First Quarter
Nov 6
Full
Nov 14
Last Quarter

Today's Extremes

State Highs State Lows

Community

WunderPhotos

Upload Photos

1,763,612 photos uploaded!

Nearby

Snow Depth

Station Depth Elevation
No new snow has been reported.

Earthquake Activity

City Distance Mag. Time & Date
No recent earthquake activity has been reported nearby.
Minimum magnitude displayed is 2.5.

Coastal Water Temperatures

Place Temperature
Solomons Island, MD 66.0 °F
Cambridge, MD 63.0 °F

Nearby Weather Stations